createdAt,value
2022-10-31T00:28:54.625Z,1011.71
2022-10-31T00:29:34.593Z,1011.77
2022-10-31T00:30:15.081Z,1011.75
2022-10-31T00:30:55.630Z,1011.8
2022-10-31T00:31:36.055Z,1011.83
2022-10-31T00:32:16.516Z,1011.87
2022-10-31T00:32:57.247Z,1011.89
2022-10-31T00:33:37.525Z,1011.88
2022-10-31T00:34:18.045Z,1011.89
2022-10-31T00:34:58.580Z,1011.83
2022-10-31T00:35:38.990Z,1011.83
2022-10-31T00:36:19.481Z,1011.8
2022-10-31T00:36:59.956Z,1011.86
2022-10-31T00:37:40.471Z,1011.87
2022-10-31T00:38:20.967Z,1011.9
2022-10-31T00:39:01.436Z,1011.94
2022-10-31T00:39:41.919Z,1011.93
2022-10-31T00:42:55.829Z,1011.91
2022-10-31T00:43:36.282Z,1011.88
2022-10-31T00:44:16.805Z,1011.91
2022-10-31T00:44:57.301Z,1011.89
2022-10-31T00:45:37.717Z,1011.89
2022-10-31T00:46:18.183Z,1011.86
2022-10-31T00:46:58.716Z,1011.88
2022-10-31T00:47:39.242Z,1011.85
2022-10-31T00:48:19.705Z,1011.87
2022-10-31T00:49:00.214Z,1011.88
2022-10-31T00:49:40.701Z,1011.85
2022-10-31T00:50:21.156Z,1011.85
2022-10-31T00:51:01.664Z,1011.83
2022-10-31T00:51:42.277Z,1011.87
2022-10-31T00:52:22.655Z,1011.84
2022-10-31T00:53:03.144Z,1011.88
2022-10-31T00:56:01.843Z,1011.8
2022-10-31T00:56:42.217Z,1011.73
2022-10-31T00:57:22.684Z,1011.69
2022-10-31T00:58:03.546Z,1011.64
2022-10-31T00:58:43.719Z,1011.62
2022-10-31T00:59:24.175Z,1011.62
2022-10-31T01:00:04.646Z,1011.62
2022-10-31T01:00:46.669Z,1011.6
2022-10-31T01:01:25.775Z,1011.63
2022-10-31T01:02:06.376Z,1011.63
2022-10-31T01:02:46.707Z,1011.66
2022-10-31T01:03:27.144Z,1011.7
2022-10-31T01:04:07.623Z,1011.71
2022-10-31T01:04:48.110Z,1011.72
2022-10-31T01:05:28.593Z,1011.71
2022-10-31T01:06:09.077Z,1011.69
2022-10-31T01:06:49.531Z,1011.68
2022-10-31T01:07:30.015Z,1011.69
2022-10-31T01:08:10.507Z,1011.7
2022-10-31T01:08:50.968Z,1011.66
2022-10-31T01:09:31.524Z,1011.65
2022-10-31T01:10:11.978Z,1011.61
2022-10-31T01:10:52.513Z,1011.62
2022-10-31T01:11:32.944Z,1011.6
2022-10-31T01:12:13.396Z,1011.59
2022-10-31T01:12:53.966Z,1011.56
2022-10-31T01:13:34.449Z,1011.58
2022-10-31T01:14:14.967Z,1011.56
2022-10-31T01:14:55.466Z,1011.57
2022-10-31T01:15:35.924Z,1011.55
2022-10-31T01:16:16.431Z,1011.54
2022-10-31T01:16:56.916Z,1011.56
2022-10-31T01:17:37.410Z,1011.57
2022-10-31T01:18:17.885Z,1011.55
2022-10-31T01:18:58.396Z,1011.59
2022-10-31T01:19:38.960Z,1011.59
2022-10-31T01:20:19.469Z,1011.57
2022-10-31T01:20:59.928Z,1011.61
2022-10-31T01:21:40.423Z,1011.61
2022-10-31T01:22:20.887Z,1011.63
2022-10-31T01:23:01.399Z,1011.58
2022-10-31T01:23:41.954Z,1011.61
2022-10-31T01:24:22.394Z,1011.6
2022-10-31T01:25:02.913Z,1011.56
2022-10-31T01:25:43.421Z,1011.51
2022-10-31T01:26:23.878Z,1011.52
2022-10-31T01:27:04.400Z,1011.52
2022-10-31T01:27:44.866Z,1011.5
2022-10-31T01:29:05.858Z,1011.44
2022-10-31T01:29:46.360Z,1011.39
2022-10-31T01:30:26.951Z,1011.44
2022-10-31T01:31:07.464Z,1011.41
2022-10-31T01:31:47.990Z,1011.39
2022-10-31T01:32:28.487Z,1011.41
2022-10-31T01:33:09.360Z,1011.42
2022-10-31T01:33:50.076Z,1011.39
2022-10-31T01:34:30.557Z,1011.38
2022-10-31T01:35:11.006Z,1011.35
2022-10-31T01:35:51.488Z,1011.34
2022-10-31T01:36:31.987Z,1011.34
2022-10-31T01:37:12.450Z,1011.32
2022-10-31T01:37:52.993Z,1011.36
2022-10-31T01:39:13.942Z,1011.38
2022-10-31T01:39:54.446Z,1011.39
2022-10-31T01:40:34.915Z,1011.43
2022-10-31T01:41:15.424Z,1011.36
2022-10-31T01:41:55.913Z,1011.38
2022-10-31T01:42:36.386Z,1011.38
2022-10-31T01:43:16.921Z,1011.39
2022-10-31T01:43:57.353Z,1011.34
2022-10-31T01:44:37.838Z,1011.34
2022-10-31T01:45:18.353Z,1011.35
2022-10-31T01:46:39.293Z,1011.29
2022-10-31T01:47:19.823Z,1011.31
2022-10-31T01:48:00.534Z,1011.3
2022-10-31T01:48:43.268Z,1011.29
2022-10-31T01:49:22.122Z,1011.29
2022-10-31T01:50:02.537Z,1011.23
2022-10-31T01:50:43.014Z,1011.24
2022-10-31T01:51:23.522Z,1011.22
2022-10-31T01:52:04.043Z,1011.23
2022-10-31T01:52:44.517Z,1011.21
2022-10-31T01:53:26.797Z,1011.2
2022-10-31T01:54:05.486Z,1011.25
2022-10-31T01:54:46.087Z,1011.28
2022-10-31T01:55:29.939Z,1011.27
2022-10-31T01:56:07.034Z,1011.26
2022-10-31T01:56:47.518Z,1011.24
2022-10-31T01:57:28.006Z,1011.24
2022-10-31T01:58:08.557Z,1011.23
2022-10-31T01:58:48.985Z,1011.22
2022-10-31T01:59:29.454Z,1011.2
2022-10-31T02:00:09.934Z,1011.2
2022-10-31T02:00:50.635Z,1011.25
2022-10-31T02:01:31.187Z,1011.24
2022-10-31T02:02:11.590Z,1011.25
2022-10-31T02:02:51.997Z,1011.28
2022-10-31T02:03:32.408Z,1011.26
2022-10-31T02:04:12.918Z,1011.29
2022-10-31T02:04:53.419Z,1011.32
2022-10-31T02:05:33.916Z,1011.34
2022-10-31T02:06:14.385Z,1011.33
2022-10-31T02:06:54.891Z,1011.36
2022-10-31T02:07:35.355Z,1011.36
2022-10-31T02:08:15.869Z,1011.36
2022-10-31T02:09:36.836Z,1011.39
2022-10-31T02:10:17.382Z,1011.39
2022-10-31T02:10:57.848Z,1011.39
2022-10-31T02:11:38.346Z,1011.38
2022-10-31T02:12:18.844Z,1011.36
2022-10-31T02:12:59.597Z,1011.36
2022-10-31T02:13:39.820Z,1011.35
2022-10-31T02:14:20.266Z,1011.38
2022-10-31T02:15:00.757Z,1011.34
2022-10-31T02:15:41.228Z,1011.37
2022-10-31T02:17:02.187Z,1011.4
2022-10-31T02:17:42.639Z,1011.42
2022-10-31T02:18:23.160Z,1011.37
2022-10-31T02:19:03.682Z,1011.37
2022-10-31T02:19:44.172Z,1011.38
2022-10-31T02:20:24.635Z,1011.37
2022-10-31T02:21:05.124Z,1011.41
2022-10-31T02:21:45.592Z,1011.37
2022-10-31T02:22:26.025Z,1011.36
2022-10-31T02:23:06.492Z,1011.35
2022-10-31T02:23:49.455Z,1011.36
2022-10-31T02:24:27.515Z,1011.35
2022-10-31T02:25:07.980Z,1011.3
2022-10-31T02:25:48.476Z,1011.34
2022-10-31T02:26:28.990Z,1011.39
2022-10-31T02:27:09.429Z,1011.38
2022-10-31T02:27:49.961Z,1011.41
2022-10-31T02:28:30.384Z,1011.38
2022-10-31T02:29:10.881Z,1011.37
2022-10-31T02:29:51.408Z,1011.37
2022-10-31T02:30:31.916Z,1011.37
2022-10-31T02:31:12.356Z,1011.38
2022-10-31T02:31:52.847Z,1011.4
2022-10-31T02:32:33.372Z,1011.4
2022-10-31T02:33:14.807Z,1011.44
2022-10-31T02:33:54.343Z,1011.43
2022-10-31T02:34:34.931Z,1011.42
2022-10-31T02:35:15.377Z,1011.44
2022-10-31T02:35:55.833Z,1011.43
2022-10-31T02:36:36.317Z,1011.43
2022-10-31T02:37:16.782Z,1011.42
2022-10-31T02:37:57.328Z,1011.4
2022-10-31T02:38:37.757Z,1011.4
2022-10-31T02:39:18.205Z,1011.44
2022-10-31T02:39:58.709Z,1011.45
2022-10-31T02:40:39.274Z,1011.43
2022-10-31T02:41:19.715Z,1011.44
2022-10-31T02:42:00.252Z,1011.47
2022-10-31T02:42:40.705Z,1011.46
2022-10-31T02:44:01.766Z,1011.47
2022-10-31T02:44:42.226Z,1011.5
2022-10-31T02:45:22.693Z,1011.47
2022-10-31T02:46:03.245Z,1011.45
2022-10-31T02:46:43.668Z,1011.46
2022-10-31T02:47:24.118Z,1011.45
2022-10-31T02:48:04.598Z,1011.4
2022-10-31T02:48:45.088Z,1011.38
2022-10-31T02:49:25.538Z,1011.35
2022-10-31T02:50:06.048Z,1011.32
2022-10-31T02:50:46.511Z,1011.35
2022-10-31T02:51:26.991Z,1011.3
2022-10-31T02:52:07.498Z,1011.28
2022-10-31T02:52:48.045Z,1011.3
2022-10-31T02:53:28.554Z,1011.33
2022-10-31T02:54:09.092Z,1011.33
2022-10-31T02:54:49.568Z,1011.35
2022-10-31T02:55:30.044Z,1011.31
2022-10-31T02:56:51.072Z,1011.29
2022-10-31T02:57:31.573Z,1011.26
2022-10-31T02:58:12.052Z,1011.34
2022-10-31T02:58:52.543Z,1011.35
2022-10-31T02:59:34.538Z,1011.3
2022-10-31T03:00:15.001Z,1011.34
2022-10-31T03:00:55.583Z,1011.35
2022-10-31T03:01:36.198Z,1011.36
2022-10-31T03:02:16.689Z,1011.34
2022-10-31T03:02:57.141Z,1011.38
2022-10-31T03:03:37.413Z,1011.36
2022-10-31T03:04:17.902Z,1011.41
2022-10-31T03:04:58.360Z,1011.43
2022-10-31T03:05:38.831Z,1011.41
2022-10-31T03:06:19.328Z,1011.43
2022-10-31T03:06:59.800Z,1011.41
2022-10-31T03:07:40.288Z,1011.37
2022-10-31T03:08:20.821Z,1011.35
2022-10-31T03:09:01.259Z,1011.38
2022-10-31T03:09:41.784Z,1011.34
2022-10-31T03:10:22.249Z,1011.36
2022-10-31T03:11:02.716Z,1011.34
2022-10-31T03:11:43.246Z,1011.36
2022-10-31T03:12:23.817Z,1011.4
2022-10-31T03:13:04.507Z,1011.41
2022-10-31T03:13:44.797Z,1011.44
2022-10-31T03:14:25.245Z,1011.43
2022-10-31T03:15:05.734Z,1011.45
2022-10-31T03:15:46.135Z,1011.47
2022-10-31T03:16:26.605Z,1011.45
2022-10-31T03:17:07.076Z,1011.45
2022-10-31T03:17:47.559Z,1011.45
2022-10-31T03:18:28.090Z,1011.47
2022-10-31T03:19:08.536Z,1011.43
2022-10-31T03:19:48.973Z,1011.41
2022-10-31T03:20:29.512Z,1011.44
2022-10-31T03:21:10.054Z,1011.46
2022-10-31T03:21:50.483Z,1011.47
2022-10-31T03:22:30.964Z,1011.49
2022-10-31T03:23:11.493Z,1011.47
2022-10-31T03:23:51.994Z,1011.47
2022-10-31T03:24:32.443Z,1011.49
2022-10-31T03:25:12.881Z,1011.48
2022-10-31T03:25:53.341Z,1011.49
2022-10-31T03:26:33.793Z,1011.49
2022-10-31T03:27:14.266Z,1011.43
2022-10-31T03:27:54.785Z,1011.44
2022-10-31T03:28:35.230Z,1011.45
2022-10-31T03:29:15.749Z,1011.41
2022-10-31T03:29:56.196Z,1011.39
2022-10-31T03:30:36.700Z,1011.35
2022-10-31T03:31:17.163Z,1011.34
2022-10-31T03:31:57.614Z,1011.34
2022-10-31T03:32:38.077Z,1011.33
2022-10-31T03:33:18.592Z,1011.3
2022-10-31T03:33:59.028Z,1011.31
2022-10-31T03:34:39.526Z,1011.33
2022-10-31T03:35:19.961Z,1011.36
2022-10-31T03:38:19.088Z,1011.37
2022-10-31T03:38:59.296Z,1011.39
2022-10-31T03:39:39.722Z,1011.37
2022-10-31T03:40:20.179Z,1011.38
2022-10-31T03:41:00.653Z,1011.35
2022-10-31T03:41:41.145Z,1011.36
2022-10-31T03:42:21.619Z,1011.34
2022-10-31T03:43:02.466Z,1011.32
2022-10-31T03:43:42.545Z,1011.33
2022-10-31T03:44:23.015Z,1011.3
2022-10-31T03:45:03.526Z,1011.3
2022-10-31T03:45:43.982Z,1011.29
2022-10-31T03:46:24.458Z,1011.27
2022-10-31T03:47:04.919Z,1011.28
2022-10-31T03:47:45.395Z,1011.25
2022-10-31T03:49:06.357Z,1011.24
2022-10-31T03:49:46.928Z,1011.21
2022-10-31T03:50:27.348Z,1011.18
2022-10-31T03:51:07.791Z,1011.14
2022-10-31T03:51:48.253Z,1011.08
2022-10-31T03:52:28.718Z,1011.12
2022-10-31T03:53:09.168Z,1011.14
2022-10-31T03:53:49.681Z,1011.17
2022-10-31T03:54:30.179Z,1011.18
2022-10-31T03:55:10.621Z,1011.19
2022-10-31T03:55:51.119Z,1011.23
2022-10-31T03:56:31.647Z,1011.2
2022-10-31T03:57:12.064Z,1011.19
2022-10-31T03:57:52.570Z,1011.23
2022-10-31T03:58:33.018Z,1011.24
2022-10-31T03:59:13.516Z,1011.21
2022-10-31T04:01:41.673Z,1011.27
2022-10-31T04:02:22.305Z,1011.25
2022-10-31T04:03:02.958Z,1011.26
2022-10-31T04:03:43.195Z,1011.27
2022-10-31T04:04:23.637Z,1011.27
2022-10-31T04:05:04.167Z,1011.29
2022-10-31T04:05:44.557Z,1011.32
2022-10-31T04:07:05.512Z,1011.31
2022-10-31T04:07:45.983Z,1011.33
2022-10-31T04:08:26.506Z,1011.33
2022-10-31T04:09:06.986Z,1011.33
2022-10-31T04:09:47.426Z,1011.29
2022-10-31T04:10:30.176Z,1011.26
2022-10-31T04:11:08.373Z,1011.29
2022-10-31T04:11:48.822Z,1011.27
2022-10-31T04:12:29.330Z,1011.25
2022-10-31T04:13:09.857Z,1011.24
2022-10-31T04:13:50.270Z,1011.29
2022-10-31T04:14:30.762Z,1011.29
2022-10-31T04:15:11.267Z,1011.28
2022-10-31T04:15:51.717Z,1011.23
2022-10-31T04:16:32.237Z,1011.23
2022-10-31T04:17:12.689Z,1011.22
2022-10-31T04:17:53.206Z,1011.2
2022-10-31T04:18:33.660Z,1011.22
2022-10-31T04:19:14.155Z,1011.22
2022-10-31T04:19:54.576Z,1011.22
2022-10-31T04:20:35.123Z,1011.22
2022-10-31T04:21:15.598Z,1011.29
2022-10-31T04:21:56.147Z,1011.23
2022-10-31T04:22:36.601Z,1011.23
2022-10-31T04:23:17.033Z,1011.25
2022-10-31T04:23:57.491Z,1011.25
2022-10-31T04:24:38.026Z,1011.23
2022-10-31T04:25:18.482Z,1011.21
2022-10-31T04:25:58.895Z,1011.22
2022-10-31T04:26:39.365Z,1011.21
2022-10-31T04:27:19.842Z,1011.18
2022-10-31T04:28:00.774Z,1011.12
2022-10-31T04:28:40.814Z,1011.14
2022-10-31T04:29:21.328Z,1011.13
2022-10-31T04:30:01.824Z,1011.11
2022-10-31T04:30:42.329Z,1011.15
2022-10-31T04:32:03.256Z,1011.14
2022-10-31T04:32:43.724Z,1011.17
2022-10-31T04:33:24.174Z,1011.2
2022-10-31T04:34:04.659Z,1011.2
2022-10-31T04:34:45.167Z,1011.22
2022-10-31T04:35:25.614Z,1011.25
2022-10-31T04:36:06.114Z,1011.26
2022-10-31T04:36:46.570Z,1011.23
2022-10-31T04:37:27.069Z,1011.23
2022-10-31T04:38:07.511Z,1011.25
2022-10-31T04:38:47.942Z,1011.23
2022-10-31T04:39:28.424Z,1011.2
2022-10-31T04:40:08.919Z,1011.2
2022-10-31T04:40:49.392Z,1011.18
2022-10-31T04:41:29.866Z,1011.16
2022-10-31T04:42:10.340Z,1011.14
2022-10-31T04:42:50.799Z,1011.15
2022-10-31T04:43:31.316Z,1011.19
2022-10-31T04:44:11.773Z,1011.2
2022-10-31T04:44:52.241Z,1011.14
2022-10-31T04:45:32.713Z,1011.14
2022-10-31T04:46:13.168Z,1011.15
2022-10-31T04:46:53.676Z,1011.15
2022-10-31T04:47:34.127Z,1011.08
2022-10-31T04:48:14.576Z,1011.03
2022-10-31T04:49:35.542Z,1010.99
2022-10-31T04:50:15.990Z,1011.01
2022-10-31T04:50:56.502Z,1011.01
2022-10-31T04:51:36.963Z,1010.99
2022-10-31T04:52:17.440Z,1010.97
2022-10-31T04:52:57.974Z,1010.94
2022-10-31T04:53:38.388Z,1010.99
2022-10-31T04:54:18.880Z,1010.99
2022-10-31T04:54:59.359Z,1011.03
2022-10-31T04:55:39.788Z,1010.99
2022-10-31T04:56:20.233Z,1011.01
2022-10-31T04:57:00.728Z,1011.02
2022-10-31T04:57:41.160Z,1011.01
2022-10-31T04:58:21.641Z,1011
2022-10-31T04:59:02.141Z,1010.98
2022-10-31T04:59:42.575Z,1011.02
2022-10-31T05:00:23.024Z,1011.03
2022-10-31T05:01:03.921Z,1011.02
2022-10-31T05:01:44.307Z,1011.03
2022-10-31T05:02:24.769Z,1011.03
2022-10-31T05:03:05.197Z,1011.06
2022-10-31T05:03:45.699Z,1011.02
2022-10-31T05:04:26.186Z,1011.05
2022-10-31T05:05:06.654Z,1011.04
2022-10-31T05:05:47.117Z,1010.99
2022-10-31T05:06:27.548Z,1011.02
2022-10-31T05:07:08.025Z,1011.05
2022-10-31T05:07:48.532Z,1010.98
2022-10-31T05:08:29.026Z,1010.99
2022-10-31T05:09:09.454Z,1010.94
2022-10-31T05:09:49.908Z,1010.96
2022-10-31T05:10:30.402Z,1010.93
2022-10-31T05:11:10.852Z,1010.92
2022-10-31T05:11:51.313Z,1010.97
2022-10-31T05:12:31.862Z,1010.98
2022-10-31T05:13:12.313Z,1010.94
2022-10-31T05:13:52.760Z,1010.93
2022-10-31T05:14:33.243Z,1010.92
2022-10-31T05:15:13.819Z,1010.93
2022-10-31T05:15:54.279Z,1010.9
2022-10-31T05:16:34.734Z,1010.91
2022-10-31T05:17:15.220Z,1010.88
2022-10-31T05:17:55.647Z,1010.9
2022-10-31T05:18:36.166Z,1010.89
2022-10-31T05:19:16.572Z,1010.89
2022-10-31T05:19:57.039Z,1010.88
2022-10-31T05:20:37.557Z,1010.85
2022-10-31T05:21:17.993Z,1010.87
2022-10-31T05:21:58.466Z,1010.88
2022-10-31T05:22:38.949Z,1010.86
2022-10-31T05:23:19.377Z,1010.83
2022-10-31T05:23:59.842Z,1010.82
2022-10-31T05:24:40.355Z,1010.83
2022-10-31T05:25:20.780Z,1010.84
2022-10-31T05:26:01.242Z,1010.84
2022-10-31T05:26:41.761Z,1010.79
2022-10-31T05:27:22.199Z,1010.81
2022-10-31T05:28:02.945Z,1010.78
2022-10-31T05:28:43.361Z,1010.77
2022-10-31T05:29:23.637Z,1010.76
2022-10-31T05:30:04.142Z,1010.77
2022-10-31T05:30:44.570Z,1010.8
2022-10-31T05:31:25.057Z,1010.77
2022-10-31T05:32:05.513Z,1010.77
2022-10-31T05:32:46.023Z,1010.8
2022-10-31T05:33:26.483Z,1010.76
2022-10-31T05:34:06.968Z,1010.77
2022-10-31T05:34:47.504Z,1010.78
2022-10-31T05:35:27.921Z,1010.79
2022-10-31T05:36:08.428Z,1010.78
2022-10-31T05:36:48.902Z,1010.81
2022-10-31T05:37:29.381Z,1010.82
2022-10-31T05:38:09.858Z,1010.84
2022-10-31T05:38:50.336Z,1010.83
2022-10-31T05:39:30.842Z,1010.85
2022-10-31T05:40:11.342Z,1010.82
2022-10-31T05:40:51.898Z,1010.82
2022-10-31T05:41:32.290Z,1010.8
2022-10-31T05:42:12.803Z,1010.8
2022-10-31T05:42:53.236Z,1010.83
2022-10-31T05:43:33.684Z,1010.82
2022-10-31T05:44:14.138Z,1010.81
2022-10-31T05:44:54.668Z,1010.81
2022-10-31T05:45:35.084Z,1010.84
2022-10-31T05:46:15.576Z,1010.8
2022-10-31T05:46:56.028Z,1010.83
2022-10-31T05:47:36.530Z,1010.82
2022-10-31T05:48:16.986Z,1010.83
2022-10-31T05:49:01.688Z,1010.81
2022-10-31T05:49:37.920Z,1010.83
2022-10-31T05:50:18.470Z,1010.81
2022-10-31T05:50:58.939Z,1010.78
2022-10-31T05:51:39.426Z,1010.79
2022-10-31T05:52:19.881Z,1010.79
2022-10-31T05:53:00.376Z,1010.79
2022-10-31T05:53:40.887Z,1010.77
2022-10-31T06:31:33.734Z,1010.67
2022-10-31T06:32:14.139Z,1010.68
2022-10-31T06:32:54.631Z,1010.66
2022-10-31T06:33:35.148Z,1010.62
2022-10-31T06:34:15.612Z,1010.59
2022-10-31T06:34:56.092Z,1010.61
2022-10-31T06:35:36.599Z,1010.57
2022-10-31T06:36:17.092Z,1010.59
2022-10-31T06:36:57.487Z,1010.57
2022-10-31T06:37:37.942Z,1010.57
2022-10-31T06:38:18.483Z,1010.52
2022-10-31T06:38:59.019Z,1010.49
2022-10-31T06:39:39.449Z,1010.57
2022-10-31T06:40:19.961Z,1010.53
2022-10-31T06:41:00.425Z,1010.57
2022-10-31T06:41:40.845Z,1010.49
2022-10-31T06:42:21.370Z,1010.53
2022-10-31T06:43:01.837Z,1010.51
2022-10-31T06:43:42.302Z,1010.55
2022-10-31T06:44:22.734Z,1010.53
2022-10-31T06:45:03.248Z,1010.52
2022-10-31T06:45:43.786Z,1010.54
2022-10-31T06:46:24.232Z,1010.54
2022-10-31T06:47:04.722Z,1010.55
2022-10-31T06:48:03.764Z,1010.57
2022-10-31T06:48:26.159Z,1010.59
2022-10-31T06:49:06.168Z,1010.58
2022-10-31T06:49:46.635Z,1010.61
2022-10-31T06:50:27.160Z,1010.63
2022-10-31T06:51:07.585Z,1010.64
2022-10-31T06:51:48.111Z,1010.63
2022-10-31T06:52:28.606Z,1010.62
2022-10-31T06:53:49.542Z,1010.62
2022-10-31T06:54:30.023Z,1010.61
2022-10-31T06:55:10.544Z,1010.58
2022-10-31T06:55:51.020Z,1010.57
2022-10-31T06:56:31.540Z,1010.57
2022-10-31T06:57:12.028Z,1010.53
2022-10-31T06:57:52.511Z,1010.53
2022-10-31T06:58:33.014Z,1010.53
2022-10-31T06:59:13.501Z,1010.54
2022-10-31T06:59:54.000Z,1010.57
2022-10-31T07:00:34.517Z,1010.6
2022-10-31T07:01:15.248Z,1010.57
2022-10-31T07:01:55.624Z,1010.61
2022-10-31T07:02:36.006Z,1010.65
2022-10-31T07:03:56.954Z,1010.72
2022-10-31T07:04:37.426Z,1010.71
2022-10-31T07:05:17.971Z,1010.74
2022-10-31T07:05:58.481Z,1010.79
2022-10-31T07:06:38.945Z,1010.82
2022-10-31T07:07:19.430Z,1010.83
2022-10-31T07:08:00.241Z,1010.82
2022-10-31T07:08:40.393Z,1010.84
2022-10-31T07:09:20.890Z,1010.86
2022-10-31T07:10:01.436Z,1010.93
2022-10-31T07:10:41.864Z,1010.92
2022-10-31T07:11:22.370Z,1010.95
2022-10-31T07:12:02.785Z,1010.99
2022-10-31T07:12:43.277Z,1010.98
2022-10-31T07:13:23.759Z,1010.98
2022-10-31T07:14:04.220Z,1011.02
2022-10-31T07:14:44.743Z,1011.01
2022-10-31T07:15:25.205Z,1011.07
2022-10-31T07:16:05.690Z,1011.05
2022-10-31T07:16:46.182Z,1011.06
2022-10-31T07:17:29.798Z,1011.04
2022-10-31T07:18:07.223Z,1011.01
2022-10-31T07:18:47.656Z,1010.98
2022-10-31T07:19:28.148Z,1011.01
2022-10-31T07:20:08.604Z,1011
2022-10-31T07:20:49.095Z,1010.97
2022-10-31T07:21:29.524Z,1011.01
2022-10-31T07:22:10.050Z,1011
2022-10-31T07:22:50.885Z,1011
2022-10-31T07:23:31.031Z,1011
2022-10-31T07:24:11.443Z,1011.01
2022-10-31T07:24:51.907Z,1011.01
2022-10-31T07:25:32.380Z,1010.98
2022-10-31T07:26:12.917Z,1010.98
2022-10-31T07:26:53.490Z,1010.97
2022-10-31T07:27:34.943Z,1010.97
2022-10-31T07:28:14.479Z,1010.91
2022-10-31T07:28:54.933Z,1010.96
2022-10-31T07:29:35.389Z,1010.94
2022-10-31T07:30:15.892Z,1010.93
2022-10-31T07:30:56.380Z,1010.94
2022-10-31T07:31:36.935Z,1010.92
2022-10-31T07:32:17.404Z,1010.91
2022-10-31T07:32:57.858Z,1010.92
2022-10-31T07:34:19.491Z,1010.9
2022-10-31T07:35:00.018Z,1010.92
2022-10-31T07:35:40.490Z,1010.87
2022-10-31T07:36:21.648Z,1010.88
2022-10-31T07:37:01.472Z,1010.91
2022-10-31T07:37:41.990Z,1010.85
2022-10-31T07:38:22.445Z,1010.85
2022-10-31T07:39:02.923Z,1010.83
2022-10-31T07:39:43.430Z,1010.82
2022-10-31T07:40:23.893Z,1010.84
2022-10-31T07:41:44.885Z,1010.8
2022-10-31T07:42:25.326Z,1010.78
2022-10-31T07:43:08.632Z,1010.82
2022-10-31T07:43:46.458Z,1010.87
2022-10-31T07:44:26.767Z,1010.86
2022-10-31T07:45:07.283Z,1010.86
2022-10-31T07:45:47.781Z,1010.86
2022-10-31T07:46:28.233Z,1010.89
2022-10-31T07:47:08.739Z,1010.9
2022-10-31T07:47:49.204Z,1010.92
2022-10-31T07:49:10.208Z,1010.93
2022-10-31T07:49:50.712Z,1010.92
2022-10-31T07:50:31.199Z,1010.94
2022-10-31T07:51:11.713Z,1010.92
2022-10-31T07:54:10.327Z,1010.99
2022-10-31T07:54:50.785Z,1010.98
2022-10-31T07:55:31.255Z,1010.95
2022-10-31T07:56:11.756Z,1010.98
2022-10-31T07:56:52.253Z,1011.01
2022-10-31T07:57:34.610Z,1010.97
2022-10-31T07:58:13.240Z,1011.01
2022-10-31T07:58:53.712Z,1010.97
2022-10-31T07:59:34.261Z,1010.98
2022-10-31T08:00:14.667Z,1010.98
2022-10-31T08:00:55.257Z,1010.97
2022-10-31T08:01:35.652Z,1010.96
2022-10-31T08:02:16.070Z,1010.94
2022-10-31T08:02:56.735Z,1010.97
2022-10-31T08:03:37.011Z,1010.94
2022-10-31T08:04:17.508Z,1010.95
2022-10-31T08:05:00.205Z,1010.94
2022-10-31T08:05:38.527Z,1010.94
2022-10-31T08:06:19.026Z,1010.94
2022-10-31T08:06:59.523Z,1010.9
2022-10-31T08:07:40.052Z,1010.91
2022-10-31T08:08:20.537Z,1010.95
2022-10-31T08:09:01.034Z,1010.97
2022-10-31T08:09:41.504Z,1010.98
2022-10-31T08:10:21.978Z,1010.95
2022-10-31T08:11:42.997Z,1010.95
2022-10-31T08:12:23.449Z,1010.97
2022-10-31T08:13:03.924Z,1010.97
2022-10-31T08:13:44.355Z,1011
2022-10-31T08:14:24.842Z,1010.98
2022-10-31T08:15:05.353Z,1010.94
2022-10-31T08:15:45.822Z,1010.95
2022-10-31T08:16:26.352Z,1010.95
2022-10-31T08:17:06.754Z,1010.93
2022-10-31T08:17:47.261Z,1010.95
2022-10-31T08:18:27.751Z,1010.92
2022-10-31T08:19:08.229Z,1010.92
2022-10-31T08:19:48.737Z,1010.93
2022-10-31T08:20:29.220Z,1010.95
2022-10-31T08:21:09.715Z,1010.98
2022-10-31T08:21:50.240Z,1010.93
2022-10-31T08:22:30.729Z,1010.95
2022-10-31T08:23:11.161Z,1010.99
2022-10-31T08:24:32.163Z,1010.99
2022-10-31T08:25:12.602Z,1010.94
2022-10-31T08:25:53.169Z,1010.97
2022-10-31T08:26:33.627Z,1010.96
2022-10-31T08:27:14.121Z,1010.94
2022-10-31T08:27:54.586Z,1010.93
2022-10-31T08:28:35.064Z,1010.94
2022-10-31T08:29:15.601Z,1010.94
2022-10-31T08:29:56.049Z,1010.95
2022-10-31T08:30:36.507Z,1010.94
2022-10-31T08:31:17.009Z,1010.92
2022-10-31T08:31:57.501Z,1010.92
2022-10-31T08:32:37.955Z,1010.92
2022-10-31T08:33:18.460Z,1010.92
2022-10-31T08:33:58.955Z,1010.91
2022-10-31T08:34:39.475Z,1010.89
2022-10-31T08:35:19.917Z,1010.9
2022-10-31T08:36:00.459Z,1010.93
2022-10-31T08:36:41.029Z,1010.89
2022-10-31T08:37:21.552Z,1010.86
2022-10-31T08:38:02.482Z,1010.84
2022-10-31T08:38:42.500Z,1010.85
2022-10-31T08:39:23.028Z,1010.8
2022-10-31T08:40:03.509Z,1010.8
2022-10-31T08:40:44.023Z,1010.83
2022-10-31T08:41:24.526Z,1010.81
2022-10-31T08:42:04.949Z,1010.84
2022-10-31T08:42:45.457Z,1010.84
2022-10-31T08:43:25.916Z,1010.83
2022-10-31T08:44:06.431Z,1010.85
2022-10-31T08:44:46.951Z,1010.84
2022-10-31T08:45:27.376Z,1010.83
2022-10-31T08:46:07.845Z,1010.79
2022-10-31T08:46:48.424Z,1010.77
2022-10-31T08:47:28.872Z,1010.74
2022-10-31T08:48:09.289Z,1010.7
2022-10-31T08:48:49.808Z,1010.72
2022-10-31T08:49:30.254Z,1010.74
2022-10-31T08:50:10.713Z,1010.73
2022-10-31T08:50:51.210Z,1010.77
2022-10-31T08:51:32.214Z,1010.77
2022-10-31T08:54:45.985Z,1010.75
2022-10-31T08:55:26.547Z,1010.78
2022-10-31T08:56:07.082Z,1010.75
2022-10-31T08:56:47.509Z,1010.71
2022-10-31T08:57:28.022Z,1010.76
2022-10-31T08:58:08.486Z,1010.74
2022-10-31T08:58:48.937Z,1010.7
2022-10-31T08:59:29.494Z,1010.67
2022-10-31T09:00:09.921Z,1010.65
2022-10-31T09:00:50.493Z,1010.65
2022-10-31T09:01:30.937Z,1010.58
2022-10-31T09:02:11.418Z,1010.58
2022-10-31T09:02:51.849Z,1010.58
2022-10-31T09:03:32.336Z,1010.57
2022-10-31T09:04:12.843Z,1010.58
2022-10-31T09:04:53.382Z,1010.54
2022-10-31T09:05:33.921Z,1010.55
2022-10-31T09:06:14.383Z,1010.52
2022-10-31T09:07:19.963Z,1010.48
2022-10-31T09:07:35.281Z,1010.5
2022-10-31T09:08:16.846Z,1010.5
2022-10-31T09:08:56.322Z,1010.51
2022-10-31T09:09:36.741Z,1010.49
2022-10-31T09:10:17.229Z,1010.47
2022-10-31T09:10:57.727Z,1010.44
2022-10-31T09:12:18.703Z,1010.44
2022-10-31T09:12:59.173Z,1010.38
2022-10-31T09:13:41.249Z,1010.4
2022-10-31T09:14:20.170Z,1010.37
2022-10-31T09:15:00.575Z,1010.41
2022-10-31T09:15:41.071Z,1010.38
2022-10-31T09:16:21.645Z,1010.35
2022-10-31T09:17:02.173Z,1010.38
2022-10-31T09:17:42.579Z,1010.35
2022-10-31T09:18:23.061Z,1010.39
2022-10-31T09:19:44.002Z,1010.34
2022-10-31T09:20:24.486Z,1010.35
2022-10-31T09:21:05.010Z,1010.35
2022-10-31T09:21:45.519Z,1010.38
2022-10-31T09:22:25.979Z,1010.4
2022-10-31T09:23:06.523Z,1010.42
2022-10-31T09:23:46.983Z,1010.4
2022-10-31T09:24:27.445Z,1010.37
2022-10-31T09:25:07.989Z,1010.4
2022-10-31T09:25:50.591Z,1010.35
2022-10-31T09:26:28.940Z,1010.33
2022-10-31T09:27:09.457Z,1010.32
2022-10-31T09:27:49.890Z,1010.27
2022-10-31T09:28:30.395Z,1010.29
2022-10-31T09:29:10.836Z,1010.33
2022-10-31T09:29:51.402Z,1010.31
2022-10-31T09:30:31.931Z,1010.24
2022-10-31T09:31:12.359Z,1010.22
2022-10-31T09:31:52.857Z,1010.23
2022-10-31T09:32:33.404Z,1010.19
2022-10-31T09:33:13.832Z,1010.19
2022-10-31T09:33:54.341Z,1010.16
2022-10-31T09:34:34.880Z,1010.16
2022-10-31T09:35:16.517Z,1010.15
2022-10-31T09:35:55.867Z,1010.14
2022-10-31T09:36:36.361Z,1010.13
2022-10-31T09:37:16.884Z,1010.1
2022-10-31T09:37:57.677Z,1010.12
2022-10-31T09:38:37.855Z,1010.12
2022-10-31T09:39:20.002Z,1010.09
2022-10-31T09:40:00.435Z,1010.02
2022-10-31T09:40:40.970Z,1010.1
2022-10-31T09:41:21.450Z,1010.09
2022-10-31T09:42:01.945Z,1010.06
2022-10-31T09:42:42.468Z,1010.01
2022-10-31T09:43:22.984Z,1010.05
2022-10-31T09:44:03.415Z,1010.09
2022-10-31T09:44:43.932Z,1010.04